Time;durP1;ratioP1;P1;durP2;ratioP2;P2;SDS_P1;SDS_P2;PMS_P1;PMS_P2;Temp;Humidity;BMP_temperature;BMP_pressure;BME280_temperature;BME280_humidity;BME280_pressure;Samples;Min_cycle;Max_cycle;Signal;HPM_P1;HPM_P2
2023/03/07 00:09:38;;;;;;;1.30;1.20;;;;;;;19.01;34.65;101307.81;21075251;28;20041;-66
2023/03/07 00:19:42;;;;;;;1.27;1.17;;;;;;;19.03;34.97;101355.56;21074638;28;20097;-66
2023/03/07 00:29:43;;;;;;;1.13;1.05;;;;;;;19.00;34.76;101328.34;21074502;28;20044;-67
2023/03/07 00:39:44;;;;;;;1.45;1.35;;;;;;;19.03;35.00;101338.91;21074041;28;20036;-65
2023/03/07 00:49:46;;;;;;;1.42;1.33;;;;;;;19.03;34.71;101344.47;21073407;28;20044;-67
2023/03/07 00:59:47;;;;;;;1.30;1.17;;;;;;;18.95;34.64;101358.78;21086713;28;20537;-68
2023/03/07 01:09:52;;;;;;;1.40;1.30;;;;;;;19.01;34.74;101361.38;21088855;28;20024;-67
2023/03/07 01:19:53;;;;;;;1.30;1.20;;;;;;;19.00;34.89;101340.25;21087912;28;20090;-67
2023/03/07 01:29:55;;;;;;;1.30;1.20;;;;;;;19.02;34.71;101351.94;21086929;28;20047;-68
2023/03/07 01:39:57;;;;;;;1.40;1.30;;;;;;;19.01;34.99;101339.19;21086462;28;20032;-68
2023/03/07 01:50:05;;;;;;;1.20;1.10;;;;;;;19.02;34.80;101323.38;21086189;28;20040;-67
2023/03/07 02:00:10;;;;;;;1.50;1.10;;;;;;;18.87;35.14;101278.81;21084914;28;20063;-68
2023/03/07 02:10:13;;;;;;;1.40;1.30;;;;;;;18.99;34.75;101273.97;21077584;28;20098;-67
2023/03/07 02:20:23;;;;;;;1.30;1.20;;;;;;;19.03;35.11;101300.09;21077764;28;20044;-68
2023/03/07 02:30:25;;;;;;;1.17;1.10;;;;;;;18.99;35.18;101274.81;21082727;28;20543;-67
2023/03/07 02:40:31;;;;;;;1.60;1.50;;;;;;;18.95;34.79;101281.13;21081727;28;20040;-67
2023/03/07 02:50:34;;;;;;;1.10;1.10;;;;;;;18.95;34.92;101240.34;21078036;28;20071;-67
2023/03/07 03:00:36;;;;;;;1.30;1.20;;;;;;;18.99;35.02;101182.44;21079830;28;20093;-69
2023/03/07 03:10:40;;;;;;;1.27;1.17;;;;;;;18.93;34.77;101134.41;21079397;28;20040;-68
2023/03/07 03:20:42;;;;;;;1.35;1.25;;;;;;;18.89;35.07;101107.47;21076341;28;20175;-68
2023/03/07 03:30:43;;;;;;;1.23;1.13;;;;;;;19.00;34.74;101098.13;21077693;28;20081;-67
2023/03/07 03:40:44;;;;;;;1.05;0.95;;;;;;;18.94;34.70;101065.94;21077275;28;20032;-67
2023/03/07 03:50:46;;;;;;;1.00;0.90;;;;;;;18.99;34.81;101061.25;21076439;28;20078;-67
2023/03/07 04:00:47;;;;;;;1.05;0.98;;;;;;;19.00;35.17;101062.09;21076345;28;20097;-67
2023/03/07 04:10:48;;;;;;;1.20;1.10;;;;;;;18.99;35.00;101047.38;21075594;28;20055;-69
2023/03/07 04:20:51;;;;;;;1.50;1.17;;;;;;;18.98;35.09;100978.34;21075114;28;20032;-67
2023/03/07 04:30:52;;;;;;;1.20;1.10;;;;;;;18.99;34.83;100982.78;21083537;28;20441;-68
2023/03/07 04:40:53;;;;;;;1.13;1.00;;;;;;;18.98;35.01;100931.19;21091216;28;20541;-67
2023/03/07 04:50:55;;;;;;;1.50;1.40;;;;;;;18.91;34.89;100880.66;21090167;28;20036;-68
2023/03/07 05:00:57;;;;;;;1.60;1.23;;;;;;;18.97;35.01;100862.97;21089690;28;20035;-68
2023/03/07 05:10:58;;;;;;;1.50;1.40;;;;;;;18.91;35.02;100852.94;21089237;28;20043;-67
2023/03/07 05:21:00;;;;;;;1.33;1.23;;;;;;;18.93;34.98;100861.84;21087973;28;20044;-66
2023/03/07 05:31:01;;;;;;;1.63;1.20;;;;;;;18.95;34.86;100848.53;21087424;28;20051;-68
2023/03/07 05:41:02;;;;;;;1.20;1.10;;;;;;;18.85;35.14;100898.38;21085868;28;20483;-66
2023/03/07 05:51:07;;;;;;;1.25;1.00;;;;;;;18.72;35.07;100894.97;21085582;28;20032;-67
2023/03/07 06:01:33;;;;;;;1.40;1.23;;;;;;;18.87;35.15;100882.31;21084961;28;20051;-66
2023/03/07 06:11:34;;;;;;;1.23;1.00;;;;;;;18.91;35.17;100880.66;21084143;28;20391;-67
2023/03/07 06:21:36;;;;;;;1.02;1.02;;;;;;;18.86;34.73;100866.78;21077130;28;20040;-67
2023/03/07 06:31:39;;;;;;;1.50;1.40;;;;;;;18.90;34.71;100901.19;21056456;28;20353;-67
2023/03/07 06:41:40;;;;;;;1.30;1.20;;;;;;;18.91;34.66;100941.66;20998066;28;20040;-67
2023/03/07 06:51:41;;;;;;;1.30;1.20;;;;;;;18.90;34.62;100928.91;20994550;28;20041;-67
2023/03/07 07:01:43;;;;;;;1.63;1.23;;;;;;;18.87;34.89;100934.97;20996199;28;20082;-67
2023/03/07 07:11:44;;;;;;;1.40;1.00;;;;;;;18.88;34.82;100912.56;20995834;28;20083;-67
2023/03/07 07:21:46;;;;;;;1.10;1.00;;;;;;;18.88;34.58;100895.09;20994643;28;20041;-68
2023/03/07 07:31:50;;;;;;;1.05;0.95;;;;;;;18.90;34.72;100940.00;20994755;28;20040;-66
2023/03/07 07:41:51;;;;;;;1.38;1.08;;;;;;;18.89;34.52;100943.88;20993859;28;20036;-66
2023/03/07 07:51:53;;;;;;;1.70;1.20;;;;;;;18.90;34.35;100917.81;21009168;28;20062;-68
2023/03/07 08:01:54;;;;;;;1.17;1.08;;;;;;;18.90;34.42;100885.38;21075096;28;20176;-66
2023/03/07 08:11:55;;;;;;;1.40;1.23;;;;;;;18.91;34.57;100864.03;21003621;28;20032;-66
2023/03/07 08:21:57;;;;;;;1.17;1.08;;;;;;;18.72;34.38;100834.00;20991721;28;20045;-67
2023/03/07 08:31:59;;;;;;;1.30;1.00;;;;;;;18.85;34.21;100826.31;20991326;28;20045;-67
2023/03/07 08:42:00;;;;;;;1.10;1.00;;;;;;;18.87;34.48;100808.28;21009461;28;20040;-68
2023/03/07 08:52:01;;;;;;;1.30;1.20;;;;;;;18.90;34.25;100760.59;21074083;28;20556;-66
2023/03/07 09:02:05;;;;;;;1.05;0.95;;;;;;;18.70;34.22;100716.19;21067975;28;20040;-68
2023/03/07 09:12:07;;;;;;;1.20;1.02;;;;;;;18.90;34.09;100813.28;21067927;28;20094;-66
2023/03/07 09:22:08;;;;;;;0.88;0.85;;;;;;;18.88;34.49;100853.50;21086470;28;20048;-66
2023/03/07 09:32:09;;;;;;;0.90;0.88;;;;;;;18.85;34.23;100873.44;21086416;28;20066;-68
2023/03/07 09:42:26;;;;;;;0.85;0.85;;;;;;;18.82;34.49;100873.97;21086401;28;20125;-69
2023/03/07 09:52:32;;;;;;;1.70;1.08;;;;;;;18.83;34.25;100872.84;21085466;28;20040;-68
2023/03/07 10:03:10;;;;;;;0.98;0.90;;;;;;;18.77;34.47;100847.88;21084866;28;20040;-67
2023/03/07 10:13:18;;;;;;;0.88;0.80;;;;;;;18.78;34.12;100832.94;21078334;28;20479;-68
2023/03/07 10:23:51;;;;;;;0.75;0.70;;;;;;;18.70;34.55;100841.75;21082914;28;20423;-67
2023/03/07 10:33:53;;;;;;;0.85;0.85;;;;;;;18.76;34.28;100857.28;21082310;28;20044;-67
2023/03/07 10:43:56;;;;;;;1.10;1.00;;;;;;;18.73;34.45;100887.50;21081418;28;20040;-67
2023/03/07 10:53:58;;;;;;;1.10;0.90;;;;;;;18.72;34.14;100900.50;21080692;28;20483;-66
2023/03/07 11:04:21;;;;;;;0.82;0.77;;;;;;;18.67;34.53;100908.78;21079643;28;20402;-67
2023/03/07 11:14:24;;;;;;;1.10;0.82;;;;;;;18.72;34.46;100910.78;21078847;28;20392;-66
2023/03/07 11:24:36;;;;;;;1.17;1.00;;;;;;;18.68;34.43;100923.47;21078829;28;20081;-68
2023/03/07 11:34:51;;;;;;;0.85;0.80;;;;;;;18.65;34.24;100935.94;21077575;28;20036;-67
2023/03/07 11:45:11;;;;;;;0.70;0.70;;;;;;;18.62;34.33;100935.63;21076711;28;20027;-67
2023/03/07 11:55:28;;;;;;;1.65;0.70;;;;;;;18.62;34.40;100955.84;21076415;28;20108;-68
2023/03/07 12:05:46;;;;;;;1.27;0.80;;;;;;;18.56;34.74;100973.56;21076052;28;20032;-67
2023/03/07 12:16:14;;;;;;;0.77;0.77;;;;;;;18.55;34.69;100982.94;21075550;28;20048;-67
2023/03/07 12:26:33;;;;;;;1.38;0.90;;;;;;;18.58;34.61;101014.84;21075150;28;20048;-66
2023/03/07 12:36:57;;;;;;;0.75;0.75;;;;;;;18.51;34.72;101013.13;21075297;28;20043;-67
2023/03/07 12:47:14;;;;;;;0.80;0.80;;;;;;;18.45;34.43;101016.09;21074014;28;20383;-66
2023/03/07 12:57:21;;;;;;;0.73;0.73;;;;;;;18.37;34.52;101000.81;21089729;28;20044;-67
2023/03/07 13:07:33;;;;;;;0.93;0.90;;;;;;;18.49;34.21;101026.41;21089115;28;20101;-66
2023/03/07 13:17:40;;;;;;;1.30;1.15;;;;;;;18.49;34.54;101029.19;21088310;28;20048;-66
2023/03/07 13:27:50;;;;;;;1.13;1.02;;;;;;;18.48;34.54;101043.31;21087226;28;20066;-68
2023/03/07 13:37:58;;;;;;;0.90;0.70;;;;;;;18.45;34.24;101033.56;21086868;28;20036;-67
2023/03/07 13:48:00;;;;;;;0.60;0.60;;;;;;;18.46;34.24;101026.09;21086165;28;20090;-66
2023/03/07 13:58:15;;;;;;;0.50;0.50;;;;;;;18.45;34.65;101043.81;21085203;28;20066;-67
2023/03/07 14:08:20;;;;;;;0.70;0.70;;;;;;;18.44;34.42;101048.53;21083905;28;20043;-67
2023/03/07 14:18:53;;;;;;;0.93;0.80;;;;;;;18.34;34.49;101039.28;21083392;28;20479;-67
2023/03/07 14:29:12;;;;;;;0.98;0.80;;;;;;;18.38;34.57;101043.19;21048326;28;20121;-67
2023/03/07 14:39:13;;;;;;;0.82;0.70;;;;;;;18.28;34.54;101032.84;21082242;28;20044;-67
2023/03/07 14:49:44;;;;;;;0.68;0.68;;;;;;;18.36;34.67;101054.53;21080175;28;20048;-68
2023/03/07 15:00:03;;;;;;;1.45;1.00;;;;;;;18.29;34.73;101046.44;21080309;28;20043;-67
2023/03/07 15:10:04;;;;;;;0.90;0.88;;;;;;;18.37;34.45;101041.50;21079175;28;20391;-67
2023/03/07 15:20:19;;;;;;;0.75;0.75;;;;;;;18.24;34.48;101040.84;21078332;28;20044;-66
2023/03/07 15:30:27;;;;;;;0.68;0.68;;;;;;;18.40;34.77;101054.84;21078422;28;20346;-67
2023/03/07 15:40:32;;;;;;;0.90;0.70;;;;;;;18.41;34.59;101054.56;21077393;28;20036;-67
2023/03/07 15:50:33;;;;;;;0.70;0.57;;;;;;;18.40;34.42;101047.38;21076574;28;20044;-67
2023/03/07 16:00:39;;;;;;;0.60;0.60;;;;;;;18.40;34.39;101057.63;21076354;28;20044;-68
2023/03/07 16:10:57;;;;;;;0.95;0.80;;;;;;;18.27;34.66;101031.16;21074455;28;20487;-67
2023/03/07 16:21:02;;;;;;;0.80;0.80;;;;;;;18.38;34.68;101044.03;21074915;28;20037;-67
2023/03/07 16:31:03;;;;;;;1.05;0.80;;;;;;;18.41;34.42;101048.19;21090377;28;20032;-66
2023/03/07 16:41:30;;;;;;;0.70;0.70;;;;;;;18.34;34.78;101053.13;21091245;28;20487;-67
2023/03/07 16:51:34;;;;;;;0.70;0.70;;;;;;;18.42;34.41;101042.41;21087422;28;20399;-66
2023/03/07 17:01:39;;;;;;;0.75;0.70;;;;;;;18.45;34.00;101022.47;21089488;28;20097;-67
2023/03/07 17:11:46;;;;;;;0.60;0.60;;;;;;;18.46;33.81;101026.09;21088696;28;20040;-67
2023/03/07 17:21:53;;;;;;;1.08;0.80;;;;;;;18.46;34.18;101029.72;21087615;28;20044;-66
2023/03/07 17:31:57;;;;;;;0.82;0.60;;;;;;;18.46;33.87;101032.50;21087133;28;20085;-66
2023/03/07 17:41:59;;;;;;;0.52;0.50;;;;;;;18.31;33.80;100998.25;21085654;28;20040;-67
2023/03/07 17:52:02;;;;;;;0.60;0.60;;;;;;;18.48;33.57;101038.59;21084528;28;20548;-66
2023/03/07 18:02:08;;;;;;;0.80;0.55;;;;;;;18.48;33.71;101035.81;21079714;28;20036;-67
2023/03/07 18:12:09;;;;;;;0.77;0.73;;;;;;;18.51;33.55;101042.78;21084208;28;20093;-66
2023/03/07 18:22:11;;;;;;;0.63;0.60;;;;;;;18.52;33.54;101063.84;21083833;28;20036;-66
2023/03/07 18:32:12;;;;;;;0.60;0.60;;;;;;;18.51;33.26;101064.97;21082039;28;20043;-66
2023/03/07 18:42:14;;;;;;;0.40;0.40;;;;;;;18.53;33.46;101068.28;21081755;28;20039;-67
2023/03/07 18:52:15;;;;;;;0.73;0.68;;;;;;;18.52;33.50;101061.06;21080168;28;20058;-67
2023/03/07 19:02:17;;;;;;;0.75;0.63;;;;;;;18.53;33.35;101069.13;21080224;28;20048;-67
2023/03/07 19:12:19;;;;;;;0.52;0.50;;;;;;;18.55;33.48;101066.06;21079508;28;20428;-66
2023/03/07 19:22:22;;;;;;;0.63;0.63;;;;;;;18.56;33.10;101072.47;21079211;28;20052;-67
2023/03/07 19:32:29;;;;;;;0.90;0.60;;;;;;;18.47;33.06;101064.63;21077992;28;20095;-67
2023/03/07 19:42:31;;;;;;;0.70;0.70;;;;;;;18.48;33.29;101084.88;21077127;28;20039;-67
2023/03/07 19:52:32;;;;;;;0.98;0.85;;;;;;;18.57;33.41;101101.88;21076783;28;20073;-67
2023/03/07 20:02:33;;;;;;;1.08;0.90;;;;;;;18.35;33.35;101079.72;21075874;28;20074;-67
2023/03/07 20:12:35;;;;;;;0.57;0.57;;;;;;;18.56;33.09;101128.75;21075863;28;20032;-67
2023/03/07 20:22:41;;;;;;;0.98;0.60;;;;;;;18.58;33.04;101134.03;21075016;28;20487;-68
2023/03/07 20:32:45;;;;;;;0.98;0.55;;;;;;;18.57;33.09;101147.03;21074943;28;20035;-67
2023/03/07 20:42:46;;;;;;;0.93;0.70;;;;;;;18.41;33.26;101120.25;21072827;28;20040;-67
2023/03/07 20:52:47;;;;;;;0.55;0.55;;;;;;;18.49;33.01;101144.72;21074671;28;20097;-69
2023/03/07 21:02:49;;;;;;;0.70;0.70;;;;;;;18.55;32.92;101165.84;21074268;28;20040;-67
2023/03/07 21:12:50;;;;;;;0.60;0.60;;;;;;;18.56;33.09;101192.50;21081321;28;20028;-67
2023/03/07 21:22:54;;;;;;;1.17;0.70;;;;;;;18.47;33.01;101180.19;21088002;28;20059;-67
2023/03/07 21:32:56;;;;;;;0.50;0.50;;;;;;;18.45;33.33;101187.91;21087363;28;20040;-67
2023/03/07 21:42:58;;;;;;;1.15;0.60;;;;;;;18.54;33.33;101219.59;21085977;28;20036;-66
2023/03/07 21:53:03;;;;;;;0.70;0.60;;;;;;;18.53;33.04;101229.03;21086088;28;20360;-68
2023/03/07 22:03:04;;;;;;;0.40;0.40;;;;;;;18.53;33.33;101234.56;21084634;28;20105;-67
2023/03/07 22:13:05;;;;;;;0.90;0.57;;;;;;;18.52;33.34;101263.38;21084151;28;20047;-67
2023/03/07 22:23:07;;;;;;;0.60;0.60;;;;;;;18.50;32.93;101284.94;21082594;28;20036;-68
2023/03/07 22:33:08;;;;;;;0.77;0.65;;;;;;;18.28;33.04;101258.06;21082784;28;20039;-66
2023/03/07 22:43:10;;;;;;;0.60;0.60;;;;;;;18.51;32.89;101319.91;21081637;28;20450;-67
2023/03/07 22:53:11;;;;;;;0.90;0.60;;;;;;;18.43;33.25;101340.56;21081241;28;20055;-67
2023/03/07 23:03:12;;;;;;;0.75;0.50;;;;;;;18.47;32.96;101368.63;21080027;28;20044;-67
2023/03/07 23:13:22;;;;;;;1.00;0.73;;;;;;;18.40;33.06;101354.09;21079784;28;20035;-67
2023/03/07 23:23:27;;;;;;;0.40;0.40;;;;;;;18.45;33.02;101382.72;21078911;28;20499;-67
2023/03/07 23:33:31;;;;;;;0.50;0.40;;;;;;;18.43;33.05;101428.41;21077118;28;20093;-68
2023/03/07 23:43:35;;;;;;;0.55;0.52;;;;;;;18.40;33.38;101473.25;21077055;28;20445;-66
2023/03/07 23:53:39;;;;;;;0.52;0.52;;;;;;;18.37;33.45;101463.50;21076594;28;20036;-66
